sensor_id;sensor_type;location;lat;lon;timestamp;pressure;altitude;pressure_sealevel;temperature;humidity
65800;BME280;52544;48.116;11.660;2022-08-20T00:00:37;95490.59;;;18.07;100.00
65800;BME280;52544;48.116;11.660;2022-08-20T00:03:09;95492.44;;;18.07;100.00
65800;BME280;52544;48.116;11.660;2022-08-20T00:05:42;95495.28;;;18.05;100.00
65800;BME280;52544;48.116;11.660;2022-08-20T00:08:08;95499.34;;;18.01;100.00
65800;BME280;52544;48.116;11.660;2022-08-20T00:10:36;95501.00;;;18.02;100.00
65800;BME280;52544;48.116;11.660;2022-08-20T00:13:04;95492.69;;;17.97;100.00
65800;BME280;52544;48.116;11.660;2022-08-20T00:15:32;95489.81;;;17.98;100.00
65800;BME280;52544;48.116;11.660;2022-08-20T00:17:58;95504.72;;;18.01;100.00
65800;BME280;52544;48.116;11.660;2022-08-20T00:20:27;95491.47;;;17.99;100.00
65800;BME280;52544;48.116;11.660;2022-08-20T00:22:54;95497.03;;;17.98;100.00
65800;BME280;52544;48.116;11.660;2022-08-20T00:25:20;95495.53;;;17.95;100.00
65800;BME280;52544;48.116;11.660;2022-08-20T00:27:46;95493.03;;;17.94;100.00
65800;BME280;52544;48.116;11.660;2022-08-20T00:30:13;95493.31;;;17.99;100.00
65800;BME280;52544;48.116;11.660;2022-08-20T00:32:44;95501.00;;;18.02;100.00
65800;BME280;52544;48.116;11.660;2022-08-20T00:35:10;95484.47;;;17.98;100.00
65800;BME280;52544;48.116;11.660;2022-08-20T00:37:36;95493.13;;;18.01;100.00
65800;BME280;52544;48.116;11.660;2022-08-20T00:40:02;95494.34;;;17.98;100.00
65800;BME280;52544;48.116;11.660;2022-08-20T00:42:28;95493.13;;;18.01;100.00
65800;BME280;52544;48.116;11.660;2022-08-20T00:44:53;95498.03;;;17.97;100.00
65800;BME280;52544;48.116;11.660;2022-08-20T00:47:19;95505.34;;;18.03;100.00
65800;BME280;52544;48.116;11.660;2022-08-20T00:49:44;95504.72;;;18.01;100.00
65800;BME280;52544;48.116;11.660;2022-08-20T00:52:17;95506.72;;;17.99;100.00
65800;BME280;52544;48.116;11.660;2022-08-20T00:54:55;95507.53;;;17.99;100.00
65800;BME280;52544;48.116;11.660;2022-08-20T00:57:32;95518.09;;;18.01;100.00
65800;BME280;52544;48.116;11.660;2022-08-20T01:00:00;95515.41;;;18.01;100.00
65800;BME280;52544;48.116;11.660;2022-08-20T01:02:31;95515.09;;;17.96;100.00
65800;BME280;52544;48.116;11.660;2022-08-20T01:04:56;95516.78;;;17.97;100.00
65800;BME280;52544;48.116;11.660;2022-08-20T01:07:25;95510.75;;;17.95;100.00
65800;BME280;52544;48.116;11.660;2022-08-20T01:10:03;95510.75;;;17.95;100.00
65800;BME280;52544;48.116;11.660;2022-08-20T01:12:30;95520.44;;;17.96;100.00
65800;BME280;52544;48.116;11.660;2022-08-20T01:14:59;95517.78;;;17.96;100.00
65800;BME280;52544;48.116;11.660;2022-08-20T01:17:27;95507.59;;;17.91;100.00
65800;BME280;52544;48.116;11.660;2022-08-20T01:22:40;95524.34;;;17.93;100.00
65800;BME280;52544;48.116;11.660;2022-08-20T01:28:22;95519.66;;;17.87;100.00
65800;BME280;52544;48.116;11.660;2022-08-20T01:30:49;95521.53;;;17.87;100.00
65800;BME280;52544;48.116;11.660;2022-08-20T01:33:17;95520.69;;;17.86;100.00
65800;BME280;52544;48.116;11.660;2022-08-20T01:35:43;95527.06;;;17.85;100.00
65800;BME280;52544;48.116;11.660;2022-08-20T01:38:10;95517.03;;;17.79;100.00
65800;BME280;52544;48.116;11.660;2022-08-20T01:43:16;95517.56;;;17.74;100.00
65800;BME280;52544;48.116;11.660;2022-08-20T01:45:42;95518.56;;;17.73;100.00
65800;BME280;52544;48.116;11.660;2022-08-20T01:48:07;95521.94;;;17.76;100.00
65800;BME280;52544;48.116;11.660;2022-08-20T01:50:34;95522.59;;;17.69;100.00
65800;BME280;52544;48.116;11.660;2022-08-20T01:53:06;95520.75;;;17.70;100.00
65800;BME280;52544;48.116;11.660;2022-08-20T01:55:32;95518.56;;;17.73;100.00
65800;BME280;52544;48.116;11.660;2022-08-20T01:57:59;95524.63;;;17.67;100.00
65800;BME280;52544;48.116;11.660;2022-08-20T02:00:25;95524.63;;;17.67;100.00
65800;BME280;52544;48.116;11.660;2022-08-20T02:02:51;95525.47;;;17.68;100.00
65800;BME280;52544;48.116;11.660;2022-08-20T02:05:17;95519.28;;;17.67;100.00
65800;BME280;52544;48.116;11.660;2022-08-20T02:07:43;95526.63;;;17.65;100.00
65800;BME280;52544;48.116;11.660;2022-08-20T02:10:10;95527.94;;;17.69;100.00
65800;BME280;52544;48.116;11.660;2022-08-20T02:12:36;95528.78;;;17.70;100.00
65800;BME280;52544;48.116;11.660;2022-08-20T02:15:06;95531.31;;;17.71;100.00
65800;BME280;52544;48.116;11.660;2022-08-20T02:17:32;95527.94;;;17.69;100.00
65800;BME280;52544;48.116;11.660;2022-08-20T02:20:07;95531.34;;;17.63;100.00
65800;BME280;52544;48.116;11.660;2022-08-20T02:22:47;95534.47;;;17.67;100.00
65800;BME280;52544;48.116;11.660;2022-08-20T02:25:14;95546.38;;;17.64;100.00
65800;BME280;52544;48.116;11.660;2022-08-20T02:27:43;95534.66;;;17.65;100.00
65800;BME280;52544;48.116;11.660;2022-08-20T02:30:14;95535.69;;;17.64;100.00
65800;BME280;52544;48.116;11.660;2022-08-20T02:32:41;95531.50;;;17.62;100.00
65800;BME280;52544;48.116;11.660;2022-08-20T02:35:08;95539.00;;;17.66;100.00
65800;BME280;52544;48.116;11.660;2022-08-20T02:37:36;95538.53;;;17.63;100.00
65800;BME280;52544;48.116;11.660;2022-08-20T02:40:04;95526.34;;;17.60;100.00
65800;BME280;52544;48.116;11.660;2022-08-20T02:42:33;95530.03;;;17.59;100.00
65800;BME280;52544;48.116;11.660;2022-08-20T02:44:58;95537.53;;;17.64;100.00
65800;BME280;52544;48.116;11.660;2022-08-20T02:47:24;95534.19;;;17.62;100.00
65800;BME280;52544;48.116;11.660;2022-08-20T02:49:52;95531.78;;;17.67;100.00
65800;BME280;52544;48.116;11.660;2022-08-20T02:52:18;95539.38;;;17.63;100.00
65800;BME280;52544;48.116;11.660;2022-08-20T02:54:44;95530.03;;;17.59;100.00
65800;BME280;52544;48.116;11.660;2022-08-20T02:57:14;95531.50;;;17.62;100.00
65800;BME280;52544;48.116;11.660;2022-08-20T02:59:40;95536.50;;;17.65;100.00
65800;BME280;52544;48.116;11.660;2022-08-20T03:02:05;95536.31;;;17.66;100.00
65800;BME280;52544;48.116;11.660;2022-08-20T03:04:31;95534.03;;;17.63;100.00
65800;BME280;52544;48.116;11.660;2022-08-20T03:06:57;95542.69;;;17.65;100.00
65800;BME280;52544;48.116;11.660;2022-08-20T03:09:23;95539.00;;;17.66;100.00
65800;BME280;52544;48.116;11.660;2022-08-20T03:11:48;95547.56;;;17.62;100.00
65800;BME280;52544;48.116;11.660;2022-08-20T03:14:14;95544.22;;;17.60;100.00
65800;BME280;52544;48.116;11.660;2022-08-20T03:16:39;95546.72;;;17.61;100.00
65800;BME280;52544;48.116;11.660;2022-08-20T03:19:05;95552.06;;;17.61;100.00
65800;BME280;52544;48.116;11.660;2022-08-20T03:21:30;95549.09;;;17.56;100.00
65800;BME280;52544;48.116;11.660;2022-08-20T03:23:56;95548.09;;;17.57;100.00
65800;BME280;52544;48.116;11.660;2022-08-20T03:26:21;95555.09;;;17.58;100.00
65800;BME280;52544;48.116;11.660;2022-08-20T03:28:47;95552.31;;;17.52;100.00
65800;BME280;52544;48.116;11.660;2022-08-20T03:31:13;95550.78;;;17.49;100.00
65800;BME280;52544;48.116;11.660;2022-08-20T03:33:39;95543.59;;;17.49;100.00
65800;BME280;52544;48.116;11.660;2022-08-20T03:36:05;95548.41;;;17.54;100.00
65800;BME280;52544;48.116;11.660;2022-08-20T03:38:32;95558.47;;;17.52;100.00
65800;BME280;52544;48.116;11.660;2022-08-20T03:40:57;95556.44;;;17.54;100.00
65800;BME280;52544;48.116;11.660;2022-08-20T03:43:23;95564.16;;;17.49;100.00
65800;BME280;52544;48.116;11.660;2022-08-20T03:45:49;95560.16;;;17.45;100.00
65800;BME280;52544;48.116;11.660;2022-08-20T03:48:17;95553.47;;;17.49;100.00
65800;BME280;52544;48.116;11.660;2022-08-20T03:50:45;95563.19;;;17.50;100.00
65800;BME280;52544;48.116;11.660;2022-08-20T03:53:12;95564.84;;;17.51;100.00
65800;BME280;52544;48.116;11.660;2022-08-20T03:55:39;95568.16;;;17.53;100.00
65800;BME280;52544;48.116;11.660;2022-08-20T03:58:06;95577.84;;;17.54;100.00
65800;BME280;52544;48.116;11.660;2022-08-20T04:00:36;95572.88;;;17.51;100.00
65800;BME280;52544;48.116;11.660;2022-08-20T04:03:02;95572.88;;;17.51;100.00
65800;BME280;52544;48.116;11.660;2022-08-20T04:05:29;95568.88;;;17.47;100.00
65800;BME280;52544;48.116;11.660;2022-08-20T04:07:57;95574.22;;;17.47;100.00
65800;BME280;52544;48.116;11.660;2022-08-20T04:10:22;95571.88;;;17.44;100.00
65800;BME280;52544;48.116;11.660;2022-08-20T04:12:50;95580.06;;;17.51;100.00
65800;BME280;52544;48.116;11.660;2022-08-20T04:15:16;95586.41;;;17.49;100.00
65800;BME280;52544;48.116;11.660;2022-08-20T04:17:45;95590.59;;;17.52;100.00
65800;BME280;52544;48.116;11.660;2022-08-20T04:20:13;95579.25;;;17.50;100.00
65800;BME280;52544;48.116;11.660;2022-08-20T04:22:39;95576.56;;;17.50;100.00
65800;BME280;52544;48.116;11.660;2022-08-20T04:25:05;95579.88;;;17.52;100.00
65800;BME280;52544;48.116;11.660;2022-08-20T04:27:35;95583.25;;;17.46;100.00
65800;BME280;52544;48.116;11.660;2022-08-20T04:30:02;95590.78;;;17.51;100.00
65800;BME280;52544;48.116;11.660;2022-08-20T04:32:28;95592.09;;;17.55;100.00
65800;BME280;52544;48.116;11.660;2022-08-20T04:34:54;95603.97;;;17.52;100.00
65800;BME280;52544;48.116;11.660;2022-08-20T04:37:21;95599.25;;;17.54;100.00
65800;BME280;52544;48.116;11.660;2022-08-20T04:39:48;95602.00;;;17.46;100.00
65800;BME280;52544;48.116;11.660;2022-08-20T04:42:35;95595.94;;;17.52;100.00
65800;BME280;52544;48.116;11.660;2022-08-20T04:45:01;95604.97;;;17.51;100.00
65800;BME280;52544;48.116;11.660;2022-08-20T04:47:26;95605.66;;;17.45;100.00
65800;BME280;52544;48.116;11.660;2022-08-20T04:49:51;95606.34;;;17.47;100.00
65800;BME280;52544;48.116;11.660;2022-08-20T04:52:17;95603.66;;;17.47;100.00
65800;BME280;52544;48.116;11.660;2022-08-20T04:54:42;95602.31;;;17.51;100.00
65800;BME280;52544;48.116;11.660;2022-08-20T04:57:08;95596.28;;;17.49;100.00
65800;BME280;52544;48.116;11.660;2022-08-20T04:59:33;95592.25;;;17.53;100.00
65800;BME280;52544;48.116;11.660;2022-08-20T05:01:58;95604.16;;;17.51;100.00
65800;BME280;52544;48.116;11.660;2022-08-20T05:04:24;95604.31;;;17.49;100.00
65800;BME280;52544;48.116;11.660;2022-08-20T05:06:51;95604.31;;;17.49;100.00
65800;BME280;52544;48.116;11.660;2022-08-20T05:09:17;95595.28;;;17.50;100.00
65800;BME280;52544;48.116;11.660;2022-08-20T05:11:42;95606.63;;;17.52;100.00
65800;BME280;52544;48.116;11.660;2022-08-20T05:14:08;95609.66;;;17.49;100.00
65800;BME280;52544;48.116;11.660;2022-08-20T05:16:35;95613.16;;;17.49;100.00
65800;BME280;52544;48.116;11.660;2022-08-20T05:19:06;95617.69;;;17.49;100.00
65800;BME280;52544;48.116;11.660;2022-08-20T05:21:32;95613.31;;;17.56;100.00
65800;BME280;52544;48.116;11.660;2022-08-20T05:23:58;95621.28;;;17.72;100.00
65800;BME280;52544;48.116;11.660;2022-08-20T05:26:24;95626.44;;;17.82;100.00
65800;BME280;52544;48.116;11.660;2022-08-20T05:28:50;95626.63;;;17.81;100.00
65800;BME280;52544;48.116;11.660;2022-08-20T05:31:16;95630.78;;;17.83;100.00
65800;BME280;52544;48.116;11.660;2022-08-20T05:33:42;95632.59;;;17.91;100.00
65800;BME280;52544;48.116;11.660;2022-08-20T05:36:07;95634.97;;;17.86;100.00
65800;BME280;52544;48.116;11.660;2022-08-20T05:38:35;95631.59;;;17.84;100.00
65800;BME280;52544;48.116;11.660;2022-08-20T05:41:01;95634.78;;;17.87;100.00
65800;BME280;52544;48.116;11.660;2022-08-20T05:43:26;95635.06;;;17.92;100.00
65800;BME280;52544;48.116;11.660;2022-08-20T05:45:52;95640.63;;;17.91;100.00
65800;BME280;52544;48.116;11.660;2022-08-20T05:48:21;95643.28;;;17.91;100.00
65800;BME280;52544;48.116;11.660;2022-08-20T05:50:48;95638.78;;;17.91;100.00
65800;BME280;52544;48.116;11.660;2022-08-20T05:53:16;95649.84;;;17.88;100.00
65800;BME280;52544;48.116;11.660;2022-08-20T05:55:41;95637.06;;;17.98;100.00
65800;BME280;52544;48.116;11.660;2022-08-20T05:58:15;95643.22;;;18.07;100.00
65800;BME280;52544;48.116;11.660;2022-08-20T06:00:41;95645.06;;;18.07;100.00
65800;BME280;52544;48.116;11.660;2022-08-20T06:03:06;95649.53;;;18.14;100.00
65800;BME280;52544;48.116;11.660;2022-08-20T06:05:50;95643.69;;;18.11;100.00
65800;BME280;52544;48.116;11.660;2022-08-20T06:08:16;95650.22;;;18.08;100.00
65800;BME280;52544;48.116;11.660;2022-08-20T06:10:42;95655.34;;;18.18;100.00
65800;BME280;52544;48.116;11.660;2022-08-20T06:13:08;95652.03;;;18.16;100.00
65800;BME280;52544;48.116;11.660;2022-08-20T06:15:35;95655.34;;;18.18;100.00
65800;BME280;52544;48.116;11.660;2022-08-20T06:18:02;95656.56;;;18.15;100.00
65800;BME280;52544;48.116;11.660;2022-08-20T06:20:33;95656.25;;;18.10;100.00
65800;BME280;52544;48.116;11.660;2022-08-20T06:22:59;95657.59;;;18.14;100.00
65800;BME280;52544;48.116;11.660;2022-08-20T06:25:24;95661.34;;;18.28;100.00
65800;BME280;52544;48.116;11.660;2022-08-20T06:27:50;95659.72;;;18.19;100.00
65800;BME280;52544;48.116;11.660;2022-08-20T06:30:15;95671.75;;;18.23;100.00
65800;BME280;52544;48.116;11.660;2022-08-20T06:32:41;95659.53;;;18.20;100.00
65800;BME280;52544;48.116;11.660;2022-08-20T06:35:08;95669.56;;;18.27;100.00
65800;BME280;52544;48.116;11.660;2022-08-20T06:37:36;95665.63;;;18.37;100.00
65800;BME280;52544;48.116;11.660;2022-08-20T06:40:11;95661.41;;;18.43;100.00
65800;BME280;52544;48.116;11.660;2022-08-20T06:42:37;95666.47;;;18.38;100.00
65800;BME280;52544;48.116;11.660;2022-08-20T06:45:09;95671.19;;;18.36;100.00
65800;BME280;52544;48.116;11.660;2022-08-20T06:47:39;95672.50;;;18.40;100.00
65800;BME280;52544;48.116;11.660;2022-08-20T06:50:11;95672.25;;;18.49;100.00
65800;BME280;52544;48.116;11.660;2022-08-20T06:52:39;95678.88;;;18.62;100.00
65800;BME280;52544;48.116;11.660;2022-08-20T06:55:06;95677.81;;;18.48;100.00
65800;BME280;52544;48.116;11.660;2022-08-20T06:57:33;95679.47;;;18.49;100.00
65800;BME280;52544;48.116;11.660;2022-08-20T06:59:58;95680.31;;;18.49;100.00
65800;BME280;52544;48.116;11.660;2022-08-20T07:02:24;95683.84;;;18.42;100.00
65800;BME280;52544;48.116;11.660;2022-08-20T07:04:50;95688.63;;;18.32;100.00
65800;BME280;52544;48.116;11.660;2022-08-20T07:07:16;95685.78;;;18.25;100.00
65800;BME280;52544;48.116;11.660;2022-08-20T07:09:43;95686.31;;;18.20;100.00
65800;BME280;52544;48.116;11.660;2022-08-20T07:12:08;95698.09;;;18.11;100.00
65800;BME280;52544;48.116;11.660;2022-08-20T07:14:35;95696.44;;;18.10;100.00
65800;BME280;52544;48.116;11.660;2022-08-20T07:17:03;95696.78;;;18.07;100.00
65800;BME280;52544;48.116;11.660;2022-08-20T07:19:29;95701.78;;;18.10;100.00
65800;BME280;52544;48.116;11.660;2022-08-20T07:21:54;95696.47;;;18.02;100.00
65800;BME280;52544;48.116;11.660;2022-08-20T07:24:19;95705.97;;;18.05;100.00
65800;BME280;52544;48.116;11.660;2022-08-20T07:26:45;95706.00;;;17.96;100.00
65800;BME280;52544;48.116;11.660;2022-08-20T07:29:10;95703.19;;;17.98;100.00
65800;BME280;52544;48.116;11.660;2022-08-20T07:31:36;95706.88;;;17.97;100.00
65800;BME280;52544;48.116;11.660;2022-08-20T07:34:19;95706.50;;;18.00;100.00
65800;BME280;52544;48.116;11.660;2022-08-20T07:36:45;95706.88;;;17.97;100.00
65800;BME280;52544;48.116;11.660;2022-08-20T07:39:13;95706.00;;;17.96;100.00
65800;BME280;52544;48.116;11.660;2022-08-20T07:41:39;95708.19;;;18.01;100.00
65800;BME280;52544;48.116;11.660;2022-08-20T07:44:04;95711.50;;;18.03;100.00
65800;BME280;52544;48.116;11.660;2022-08-20T07:46:30;95713.53;;;18.01;100.00
65800;BME280;52544;48.116;11.660;2022-08-20T07:48:55;95716.03;;;18.03;100.00
65800;BME280;52544;48.116;11.660;2022-08-20T07:51:21;95710.00;;;18.01;100.00
65800;BME280;52544;48.116;11.660;2022-08-20T07:53:47;95719.56;;;18.03;100.00
65800;BME280;52544;48.116;11.660;2022-08-20T07:56:17;95715.22;;;18.02;100.00
65800;BME280;52544;48.116;11.660;2022-08-20T07:58:49;95718.53;;;18.04;100.00
65800;BME280;52544;48.116;11.660;2022-08-20T08:01:21;95714.84;;;18.05;100.00
65800;BME280;52544;48.116;11.660;2022-08-20T08:03:47;95718.53;;;18.04;100.00
65800;BME280;52544;48.116;11.660;2022-08-20T08:06:12;95723.56;;;18.07;100.00
65800;BME280;52544;48.116;11.660;2022-08-20T08:08:39;95714.50;;;18.08;100.00
65800;BME280;52544;48.116;11.660;2022-08-20T08:11:06;95716.84;;;18.11;100.00
65800;BME280;52544;48.116;11.660;2022-08-20T08:13:39;95716.47;;;18.22;100.00
65800;BME280;52544;48.116;11.660;2022-08-20T08:16:06;95716.88;;;18.73;100.00
65800;BME280;52544;48.116;11.660;2022-08-20T08:18:42;95707.53;;;19.07;100.00
65800;BME280;52544;48.116;11.660;2022-08-20T08:21:09;95715.28;;;19.40;100.00
65800;BME280;52544;48.116;11.660;2022-08-20T08:23:38;95705.84;;;19.67;100.00
65800;BME280;52544;48.116;11.660;2022-08-20T08:26:05;95715.09;;;19.94;100.00
65800;BME280;52544;48.116;11.660;2022-08-20T08:28:30;95712.84;;;20.12;100.00
65800;BME280;52544;48.116;11.660;2022-08-20T08:30:56;95724.25;;;20.00;100.00
65800;BME280;52544;48.116;11.660;2022-08-20T08:33:27;95716.09;;;20.08;99.85
65800;BME280;52544;48.116;11.660;2022-08-20T08:35:54;95715.38;;;20.14;98.76
65800;BME280;52544;48.116;11.660;2022-08-20T08:38:21;95717.28;;;20.20;96.58
65800;BME280;52544;48.116;11.660;2022-08-20T08:40:52;95726.75;;;20.31;95.39
65800;BME280;52544;48.116;11.660;2022-08-20T08:43:22;95728.41;;;20.32;94.84
65800;BME280;52544;48.116;11.660;2022-08-20T08:46:05;95735.34;;;20.41;93.72
65800;BME280;52544;48.116;11.660;2022-08-20T08:48:42;95735.88;;;20.51;92.67
65800;BME280;52544;48.116;11.660;2022-08-20T08:51:11;95735.16;;;20.57;91.08
65800;BME280;52544;48.116;11.660;2022-08-20T08:53:45;95731.81;;;20.55;91.03
65800;BME280;52544;48.116;11.660;2022-08-20T08:56:13;95737.13;;;20.49;91.36
65800;BME280;52544;48.116;11.660;2022-08-20T08:58:39;95737.38;;;20.54;91.00
65800;BME280;52544;48.116;11.660;2022-08-20T09:01:13;95727.97;;;20.64;90.15
65800;BME280;52544;48.116;11.660;2022-08-20T09:03:40;95735.41;;;20.62;90.16
65800;BME280;52544;48.116;11.660;2022-08-20T09:06:16;95738.63;;;20.72;89.54
65800;BME280;52544;48.116;11.660;2022-08-20T09:08:59;95733.91;;;20.60;89.82
65800;BME280;52544;48.116;11.660;2022-08-20T09:11:27;95745.31;;;20.47;89.81
65800;BME280;52544;48.116;11.660;2022-08-20T09:13:53;95748.69;;;20.34;90.58
65800;BME280;52544;48.116;11.660;2022-08-20T09:16:19;95743.81;;;20.23;92.35
65800;BME280;52544;48.116;11.660;2022-08-20T09:18:44;95748.09;;;20.39;91.79
65800;BME280;52544;48.116;11.660;2022-08-20T09:21:10;95745.06;;;20.42;91.25
65800;BME280;52544;48.116;11.660;2022-08-20T09:23:36;95760.38;;;20.27;91.81
65800;BME280;52544;48.116;11.660;2022-08-20T09:26:01;95755.53;;;20.37;91.68
65800;BME280;52544;48.116;11.660;2022-08-20T09:28:27;95755.09;;;20.48;90.90
65800;BME280;52544;48.116;11.660;2022-08-20T09:30:52;95757.31;;;20.30;89.11
65800;BME280;52544;48.116;11.660;2022-08-20T09:33:18;95752.69;;;20.23;92.04
65800;BME280;52544;48.116;11.660;2022-08-20T09:35:44;95757.34;;;20.15;94.43
65800;BME280;52544;48.116;11.660;2022-08-20T09:38:11;95752.31;;;20.27;93.96
65800;BME280;52544;48.116;11.660;2022-08-20T09:40:37;95749.81;;;20.40;93.79
65800;BME280;52544;48.116;11.660;2022-08-20T09:43:07;95752.38;;;20.33;94.61
65800;BME280;52544;48.116;11.660;2022-08-20T09:45:33;95746.59;;;19.85;98.74
65800;BME280;52544;48.116;11.660;2022-08-20T09:47:58;95756.44;;;19.55;100.00
65800;BME280;52544;48.116;11.660;2022-08-20T09:50:26;95749.69;;;19.36;100.00
65800;BME280;52544;48.116;11.660;2022-08-20T09:52:52;95751.69;;;19.19;100.00
65800;BME280;52544;48.116;11.660;2022-08-20T09:55:22;95746.47;;;19.03;100.00
65800;BME280;52544;48.116;11.660;2022-08-20T09:57:50;95745.88;;;18.93;100.00
65800;BME280;52544;48.116;11.660;2022-08-20T10:00:16;95751.47;;;18.83;100.00
65800;BME280;52544;48.116;11.660;2022-08-20T10:02:42;95748.66;;;18.77;100.00
65800;BME280;52544;48.116;11.660;2022-08-20T10:05:08;95745.50;;;18.73;100.00
65800;BME280;52544;48.116;11.660;2022-08-20T10:07:35;95741.47;;;18.69;100.00
65800;BME280;52544;48.116;11.660;2022-08-20T10:10:03;95747.34;;;18.64;100.00
65800;BME280;52544;48.116;11.660;2022-08-20T10:12:28;95748.66;;;18.68;100.00
65800;BME280;52544;48.116;11.660;2022-08-20T10:14:53;95754.22;;;18.67;100.00
65800;BME280;52544;48.116;11.660;2022-08-20T10:17:19;95743.31;;;18.68;100.00
65800;BME280;52544;48.116;11.660;2022-08-20T10:19:45;95750.41;;;18.69;100.00
65800;BME280;52544;48.116;11.660;2022-08-20T10:22:10;95753.91;;;18.70;100.00
65800;BME280;52544;48.116;11.660;2022-08-20T10:24:36;95745.16;;;18.68;100.00
65800;BME280;52544;48.116;11.660;2022-08-20T10:27:01;95750.41;;;18.69;100.00
65800;BME280;52544;48.116;11.660;2022-08-20T10:29:28;95748.53;;;18.70;100.00
65800;BME280;52544;48.116;11.660;2022-08-20T10:31:54;95747.72;;;18.69;100.00
65800;BME280;52544;48.116;11.660;2022-08-20T10:34:22;95740.00;;;18.66;100.00
65800;BME280;52544;48.116;11.660;2022-08-20T10:36:47;95741.34;;;18.70;100.00
65800;BME280;52544;48.116;11.660;2022-08-20T10:39:13;95742.66;;;18.75;100.00
65800;BME280;52544;48.116;11.660;2022-08-20T10:41:38;95745.34;;;18.75;100.00
65800;BME280;52544;48.116;11.660;2022-08-20T10:44:04;95741.16;;;18.72;100.00
65800;BME280;52544;48.116;11.660;2022-08-20T10:46:30;95747.34;;;18.64;100.00
65800;BME280;52544;48.116;11.660;2022-08-20T10:48:55;95748.66;;;18.68;100.00
65800;BME280;52544;48.116;11.660;2022-08-20T10:51:21;95753.72;;;18.71;100.00
65800;BME280;52544;48.116;11.660;2022-08-20T10:53:46;95748.34;;;18.71;100.00
65800;BME280;52544;48.116;11.660;2022-08-20T10:56:12;95747.72;;;18.69;100.00
65800;BME280;52544;48.116;11.660;2022-08-20T10:58:37;95753.06;;;18.69;100.00
65800;BME280;52544;48.116;11.660;2022-08-20T11:01:03;95752.88;;;18.71;100.00
65800;BME280;52544;48.116;11.660;2022-08-20T11:03:28;95746.69;;;18.70;100.00
65800;BME280;52544;48.116;11.660;2022-08-20T11:05:53;95742.66;;;18.75;100.00
65800;BME280;52544;48.116;11.660;2022-08-20T11:08:19;95750.16;;;18.79;100.00
65800;BME280;52544;48.116;11.660;2022-08-20T11:10:44;95746.94;;;18.84;100.00
65800;BME280;52544;48.116;11.660;2022-08-20T11:13:10;95743.59;;;18.82;100.00
65800;BME280;52544;48.116;11.660;2022-08-20T11:15:39;95740.75;;;18.83;100.00
65800;BME280;52544;48.116;11.660;2022-08-20T11:18:06;95732.88;;;18.82;100.00
65800;BME280;52544;48.116;11.660;2022-08-20T11:20:32;95724.31;;;18.86;100.00
65800;BME280;52544;48.116;11.660;2022-08-20T11:22:58;95728.47;;;18.89;100.00
65800;BME280;52544;48.116;11.660;2022-08-20T11:25:24;95742.06;;;18.87;100.00
65800;BME280;52544;48.116;11.660;2022-08-20T11:27:51;95729.13;;;18.91;100.00
65800;BME280;52544;48.116;11.660;2022-08-20T11:30:21;95722.75;;;18.92;100.00
65800;BME280;52544;48.116;11.660;2022-08-20T11:32:47;95727.75;;;18.95;100.00
65800;BME280;52544;48.116;11.660;2022-08-20T11:35:12;95724.06;;;18.96;100.00
65800;BME280;52544;48.116;11.660;2022-08-20T11:37:38;95716.56;;;18.91;100.00
65800;BME280;52544;48.116;11.660;2022-08-20T11:40:05;95724.41;;;18.93;100.00
65800;BME280;52544;48.116;11.660;2022-08-20T11:42:33;95715.00;;;18.97;100.00
65800;BME280;52544;48.116;11.660;2022-08-20T11:44:59;95717.50;;;18.98;100.00
65800;BME280;52544;48.116;11.660;2022-08-20T11:47:27;95718.44;;;19.06;100.00
65800;BME280;52544;48.116;11.660;2022-08-20T11:50:04;95721.25;;;19.12;100.00
65800;BME280;52544;48.116;11.660;2022-08-20T11:52:30;95720.03;;;19.15;100.00
65800;BME280;52544;48.116;11.660;2022-08-20T11:54:56;95725.53;;;19.21;100.00
65800;BME280;52544;48.116;11.660;2022-08-20T11:57:24;95718.50;;;19.20;100.00
65800;BME280;52544;48.116;11.660;2022-08-20T11:59:51;95720.81;;;19.23;100.00
65800;BME280;52544;48.116;11.660;2022-08-20T12:02:17;95716.28;;;19.24;100.00
65800;BME280;52544;48.116;11.660;2022-08-20T12:04:43;95722.66;;;19.23;100.00
65800;BME280;52544;48.116;11.660;2022-08-20T12:07:15;95722.84;;;19.21;100.00
65800;BME280;52544;48.116;11.660;2022-08-20T12:09:42;95723.50;;;19.23;100.00
65800;BME280;52544;48.116;11.660;2022-08-20T12:12:08;95727.47;;;19.28;100.00
65800;BME280;52544;48.116;11.660;2022-08-20T12:14:34;95730.34;;;19.26;100.00
65800;BME280;52544;48.116;11.660;2022-08-20T12:17:13;95732.97;;;19.34;100.00
65800;BME280;52544;48.116;11.660;2022-08-20T12:19:41;95734.81;;;19.34;100.00
65800;BME280;52544;48.116;11.660;2022-08-20T12:22:07;95723.69;;;19.37;100.00
65800;BME280;52544;48.116;11.660;2022-08-20T12:24:34;95727.69;;;19.41;100.00
65800;BME280;52544;48.116;11.660;2022-08-20T12:27:17;95730.75;;;19.38;100.00
65800;BME280;52544;48.116;11.660;2022-08-20T12:29:45;95739.63;;;19.38;100.00
65800;BME280;52544;48.116;11.660;2022-08-20T12:32:11;95733.78;;;19.35;100.00
65800;BME280;52544;48.116;11.660;2022-08-20T12:34:39;95726.78;;;19.34;100.00
65800;BME280;52544;48.116;11.660;2022-08-20T12:37:11;95725.94;;;19.33;100.00
65800;BME280;52544;48.116;11.660;2022-08-20T12:39:42;95728.06;;;19.38;100.00
65800;BME280;52544;48.116;11.660;2022-08-20T12:42:08;95731.13;;;19.35;100.00
65800;BME280;52544;48.116;11.660;2022-08-20T12:44:35;95721.75;;;19.68;100.00
65800;BME280;52544;48.116;11.660;2022-08-20T12:47:21;95719.72;;;19.70;100.00
65800;BME280;52544;48.116;11.660;2022-08-20T12:49:50;95720.66;;;19.78;100.00